Time;durP1;ratioP1;P1;durP2;ratioP2;P2;SDS_P1;SDS_P2;PMS_P1;PMS_P2;Temp;Humidity;BMP_temperature;BMP_pressure;BME280_temperature;BME280_humidity;BME280_pressure;Samples;Min_cycle;Max_cycle;Signal;HPM_P1;HPM_P2
2023/11/19 00:19:46;;;;;;;;;;;;;;;9.14;78.49;99796.88;1088850;54;1692;-83
2023/11/19 00:20:47;;;;;;;;;;;;;;;9.20;78.51;99801.66;1088938;54;918;-82
2023/11/19 00:22:02;;;;;;;;;;;;;;;9.26;78.51;99796.75;1088561;46;1320;-82
2023/11/19 00:23:03;;;;;;;;;;;;;;;9.35;77.97;99790.56;1088608;54;943;-82
2023/11/19 00:24:08;;;;;;;;;;;;;;;9.38;78.02;99782.25;1088196;47;967;-80
2023/11/19 00:25:09;;;;;;;;;;;;;;;9.43;78.01;99796.00;1088192;54;808;-79
2023/11/19 00:26:14;;;;;;;;;;;;;;;9.48;78.07;99787.56;1088196;54;865;-79
2023/11/19 00:27:15;;;;;;;;;;;;;;;9.51;78.26;99788.13;1088034;47;895;-79
2023/11/19 00:28:19;;;;;;;;;;;;;;;9.54;77.99;99786.16;1088096;47;882;-80
2023/11/19 00:29:20;;;;;;;;;;;;;;;9.58;78.06;99788.41;1088159;54;911;-80
2023/11/19 00:30:24;;;;;;;;;;;;;;;9.60;77.72;99790.91;1088037;46;891;-80
2023/11/19 00:31:26;;;;;;;;;;;;;;;9.59;77.63;99787.38;1087972;47;1205;-79
2023/11/19 00:32:29;;;;;;;;;;;;;;;9.62;78.00;99794.28;1088052;47;969;-79
2023/11/19 00:33:31;;;;;;;;;;;;;;;9.64;77.75;99786.94;1088064;54;923;-79
2023/11/19 00:34:34;;;;;;;;;;;;;;;9.55;78.03;99783.34;1088046;54;994;-80
2023/11/19 00:35:38;;;;;;;;;;;;;;;9.47;78.37;99781.38;1088099;46;971;-80
2023/11/19 00:36:42;;;;;;;;;;;;;;;9.46;78.23;99779.69;1088106;54;973;-79
2023/11/19 00:37:43;;;;;;;;;;;;;;;9.46;78.67;99782.34;1088068;46;1092;-79
2023/11/19 00:38:46;;;;;;;;;;;;;;;9.49;78.44;99779.41;1088006;54;1852;-81
2023/11/19 00:39:47;;;;;;;;;;;;;;;9.57;78.21;99780.50;1087969;46;959;-78
2023/11/19 00:40:50;;;;;;;;;;;;;;;9.52;78.39;99778.28;1087976;47;902;-79
2023/11/19 00:41:51;;;;;;;;;;;;;;;9.57;78.32;99786.72;1087967;47;1335;-79
2023/11/19 00:42:54;;;;;;;;;;;;;;;9.57;78.36;99775.19;1087935;54;936;-79
2023/11/19 00:43:55;;;;;;;;;;;;;;;9.55;78.23;99775.31;1087981;54;1043;-79
2023/11/19 00:44:58;;;;;;;;;;;;;;;9.47;78.55;99775.22;1088127;46;940;-79
2023/11/19 00:46:00;;;;;;;;;;;;;;;9.46;78.67;99779.69;1087925;46;947;-79
2023/11/19 00:47:05;;;;;;;;;;;;;;;9.46;79.22;99784.19;1087998;46;985;-79
2023/11/19 00:48:05;;;;;;;;;;;;;;;9.50;79.16;99780.25;1087887;47;915;-80
2023/11/19 00:49:11;;;;;;;;;;;;;;;9.41;79.07;99767.75;1087986;54;914;-79
2023/11/19 00:50:12;;;;;;;;;;;;;;;9.31;79.28;99765.97;1087955;47;876;-79
2023/11/19 00:51:18;;;;;;;;;;;;;;;9.39;79.26;99761.75;1087972;54;1634;-79
2023/11/19 00:52:19;;;;;;;;;;;;;;;9.43;79.07;99756.00;1087996;54;989;-78
2023/11/19 00:53:23;;;;;;;;;;;;;;;9.48;79.13;99758.22;1088034;54;1002;-78
2023/11/19 00:54:25;;;;;;;;;;;;;;;9.52;79.02;99752.44;1087987;54;916;-78
2023/11/19 00:55:29;;;;;;;;;;;;;;;9.57;78.83;99751.16;1087944;47;947;-78
2023/11/19 00:56:30;;;;;;;;;;;;;;;9.58;78.63;99747.50;1087988;47;962;-78
2023/11/19 00:57:32;;;;;;;;;;;;;;;9.48;78.89;99748.38;1087968;47;899;-79
2023/11/19 00:58:36;;;;;;;;;;;;;;;9.54;79.01;99741.63;1087932;54;1853;-79
2023/11/19 00:59:37;;;;;;;;;;;;;;;9.48;79.10;99745.72;1087957;46;952;-79
2023/11/19 01:00:42;;;;;;;;;;;;;;;9.52;78.89;99744.44;1087803;54;981;-78
2023/11/19 01:01:43;;;;;;;;;;;;;;;9.53;79.16;99742.59;1087631;54;1320;-80
2023/11/19 01:02:49;;;;;;;;;;;;;;;9.52;78.98;99743.59;1087760;47;1023;-78
2023/11/19 01:03:50;;;;;;;;;;;;;;;9.57;78.70;99733.34;1087744;47;1067;-78
2023/11/19 01:04:53;;;;;;;;;;;;;;;9.58;78.86;99726.16;1087851;54;1095;-79
2023/11/19 01:05:55;;;;;;;;;;;;;;;9.55;78.87;99734.44;1087896;47;975;-78
2023/11/19 01:06:59;;;;;;;;;;;;;;;9.49;79.24;99739.38;1088014;54;994;-79
2023/11/19 01:08:05;;;;;;;;;;;;;;;9.54;79.00;99738.13;1087832;54;1022;-79
2023/11/19 01:09:05;;;;;;;;;;;;;;;9.49;79.43;99736.72;1087322;47;1134;-78
2023/11/19 01:10:10;;;;;;;;;;;;;;;9.41;79.79;99728.59;1087332;54;1135;-79
2023/11/19 01:11:20;;;;;;;;;;;;;;;9.38;79.93;99733.41;1087310;54;1406;-79
2023/11/19 01:12:23;;;;;;;;;;;;;;;9.41;80.13;99733.94;1087424;54;1076;-77
2023/11/19 01:13:24;;;;;;;;;;;;;;;9.48;79.89;99739.53;1087362;47;1003;-78
2023/11/19 01:14:28;;;;;;;;;;;;;;;9.42;80.27;99735.63;1087591;54;1094;-78
2023/11/19 01:15:29;;;;;;;;;;;;;;;9.35;80.58;99745.19;1087472;54;1028;-78
2023/11/19 01:16:33;;;;;;;;;;;;;;;9.32;80.75;99746.31;1087416;47;1083;-79
2023/11/19 01:17:34;;;;;;;;;;;;;;;9.30;80.86;99742.09;1087178;47;1114;-77
2023/11/19 01:18:37;;;;;;;;;;;;;;;9.28;80.77;99741.41;1087232;54;1856;-78
2023/11/19 01:19:38;;;;;;;;;;;;;;;9.29;81.19;99753.75;1087254;47;983;-78
2023/11/19 01:20:41;;;;;;;;;;;;;;;9.33;81.24;99756.00;1086435;47;1175;-78
2023/11/19 01:21:43;;;;;;;;;;;;;;;9.38;80.91;99750.22;1087397;54;1371;-78
2023/11/19 01:22:49;;;;;;;;;;;;;;;9.36;81.08;99752.19;1087407;46;1027;-78
2023/11/19 01:23:49;;;;;;;;;;;;;;;9.34;80.88;99752.34;1087135;47;1121;-78
2023/11/19 01:24:52;;;;;;;;;;;;;;;9.38;81.06;99750.22;1087318;47;997;-79
2023/11/19 01:25:55;;;;;;;;;;;;;;;9.39;80.97;99751.91;1087307;47;1499;-78
2023/11/19 01:26:57;;;;;;;;;;;;;;;9.41;81.30;99763.28;1087740;54;1075;-78
2023/11/19 01:28:02;;;;;;;;;;;;;;;9.46;81.05;99758.34;1087557;46;1034;-79
2023/11/19 01:29:04;;;;;;;;;;;;;;;9.43;81.20;99757.81;1087979;54;970;-78
2023/11/19 01:30:09;;;;;;;;;;;;;;;9.42;80.92;99756.09;1087952;46;1100;-78
2023/11/19 01:31:10;;;;;;;;;;;;;;;9.42;81.31;99756.97;1087657;47;1439;-78
2023/11/19 01:32:12;;;;;;;;;;;;;;;9.46;81.34;99758.34;1087398;54;1036;-79
2023/11/19 01:33:15;;;;;;;;;;;;;;;9.44;81.12;99749.66;1087262;54;1059;-79
2023/11/19 01:34:16;;;;;;;;;;;;;;;9.38;81.45;99749.41;1087011;54;1079;-79
2023/11/19 01:35:19;;;;;;;;;;;;;;;9.35;81.49;99751.38;1087304;47;1047;-79
2023/11/19 01:36:20;;;;;;;;;;;;;;;9.31;81.50;99749.94;1087431;54;1106;-79
2023/11/19 01:37:21;;;;;;;;;;;;;;;9.34;81.66;99749.69;1087506;54;1138;-78
2023/11/19 01:38:27;;;;;;;;;;;;;;;9.35;81.72;99753.19;1087229;47;1842;-78
2023/11/19 01:39:28;;;;;;;;;;;;;;;9.44;81.60;99749.66;1087607;54;1137;-78
2023/11/19 01:40:32;;;;;;;;;;;;;;;9.45;81.43;99751.31;1087752;54;1058;-78
2023/11/19 01:41:34;;;;;;;;;;;;;;;9.44;81.59;99747.00;1087651;54;1293;-78
2023/11/19 01:42:39;;;;;;;;;;;;;;;9.48;80.92;99745.72;1087634;54;1027;-78
2023/11/19 01:43:41;;;;;;;;;;;;;;;9.50;81.01;99742.88;1087313;47;1086;-78
2023/11/19 01:44:45;;;;;;;;;;;;;;;9.30;82.06;99737.63;1087709;54;1067;-81
2023/11/19 01:45:46;;;;;;;;;;;;;;;9.33;82.04;99729.31;1087716;54;1113;-80
2023/11/19 01:46:51;;;;;;;;;;;;;;;9.36;82.19;99718.38;1087712;54;1075;-80
2023/11/19 01:47:52;;;;;;;;;;;;;;;9.39;82.32;99721.75;1087663;47;944;-80
2023/11/19 01:48:55;;;;;;;;;;;;;;;9.44;82.45;99723.00;1087744;47;1090;-81
2023/11/19 01:49:56;;;;;;;;;;;;;;;9.35;82.58;99722.03;1087675;54;1074;-78
2023/11/19 01:50:57;;;;;;;;;;;;;;;9.36;82.68;99720.19;1087797;46;1049;-81
2023/11/19 01:52:01;;;;;;;;;;;;;;;9.35;82.36;99722.03;1087522;47;1271;-82
2023/11/19 01:53:02;;;;;;;;;;;;;;;9.36;82.64;99728.19;1087501;47;1019;-81
2023/11/19 01:54:08;;;;;;;;;;;;;;;9.39;82.48;99719.06;1087498;54;1086;-79
2023/11/19 01:55:10;;;;;;;;;;;;;;;9.43;82.33;99729.31;1087545;54;1058;-79
2023/11/19 01:56:13;;;;;;;;;;;;;;;9.43;82.43;99736.44;1087708;54;1086;-81
2023/11/19 01:57:17;;;;;;;;;;;;;;;9.43;82.70;99739.13;1087493;54;1182;-79
2023/11/19 01:58:19;;;;;;;;;;;;;;;9.49;82.39;99742.06;1087676;47;1844;-79
2023/11/19 01:59:26;;;;;;;;;;;;;;;9.44;82.77;99738.13;1087730;54;1092;-81
2023/11/19 02:00:26;;;;;;;;;;;;;;;9.49;82.69;99734.06;1087717;47;925;-81
2023/11/19 02:01:30;;;;;;;;;;;;;;;9.42;82.96;99743.63;1087715;54;1398;-81
2023/11/19 02:02:31;;;;;;;;;;;;;;;9.51;82.83;99744.56;1087668;47;1079;-80
2023/11/19 02:03:35;;;;;;;;;;;;;;;9.54;82.64;99738.13;1087453;47;1085;-82
2023/11/19 02:04:38;;;;;;;;;;;;;;;9.55;82.45;99739.78;1088528;47;902;-83
2023/11/19 02:05:42;;;;;;;;;;;;;;;9.54;82.56;99735.47;1088323;47;851;-82
2023/11/19 02:06:44;;;;;;;;;;;;;;;9.54;82.58;99740.78;1088327;54;985;-83
2023/11/19 02:07:46;;;;;;;;;;;;;;;9.55;82.51;99731.78;1088199;47;950;-83
2023/11/19 02:08:49;;;;;;;;;;;;;;;9.41;82.97;99741.94;1088277;54;892;-84
2023/11/19 02:09:53;;;;;;;;;;;;;;;9.42;83.13;99740.09;1088184;47;962;-82
2023/11/19 02:10:57;;;;;;;;;;;;;;;9.42;82.84;99740.97;1088206;47;897;-83
2023/11/19 02:11:58;;;;;;;;;;;;;;;9.50;82.46;99737.56;1088263;54;1458;-82
2023/11/19 02:12:59;;;;;;;;;;;;;;;9.52;82.25;99733.78;1088354;54;1009;-83
2023/11/19 02:14:03;;;;;;;;;;;;;;;9.55;82.33;99729.09;1088219;47;976;-83
2023/11/19 02:15:04;;;;;;;;;;;;;;;9.55;82.20;99735.31;1088329;54;963;-84
2023/11/19 02:16:11;;;;;;;;;;;;;;;9.53;82.48;99737.25;1088279;47;932;-84
2023/11/19 02:17:25;;;;;;;;;;;;;;;9.55;82.46;99737.97;1088358;47;983;-83
2023/11/19 02:18:30;;;;;;;;;;;;;;;9.60;82.54;99737.53;1088278;54;1854;-83
2023/11/19 02:19:31;;;;;;;;;;;;;;;9.64;82.42;99736.22;1088388;54;1021;-84
2023/11/19 02:20:33;;;;;;;;;;;;;;;9.65;82.30;99736.09;1088261;47;955;-84
2023/11/19 02:21:38;;;;;;;;;;;;;;;9.64;82.33;99733.56;1087543;54;1232;-81
2023/11/19 02:22:39;;;;;;;;;;;;;;;9.66;82.10;99726.25;1088392;54;939;-82
2023/11/19 02:23:42;;;;;;;;;;;;;;;9.61;82.32;99725.88;1088483;54;940;-85
2023/11/19 02:24:43;;;;;;;;;;;;;;;9.62;82.44;99731.06;1088318;47;908;-82
2023/11/19 02:25:54;;;;;;;;;;;;;;;9.62;82.41;99733.72;1087989;54;967;-82
2023/11/19 02:27:02;;;;;;;;;;;;;;;9.61;82.45;99739.22;1087827;54;959;-82
2023/11/19 02:28:05;;;;;;;;;;;;;;;9.52;82.73;99738.25;1088191;54;1004;-82
2023/11/19 02:29:09;;;;;;;;;;;;;;;9.47;82.65;99727.19;1088301;47;949;-80
2023/11/19 02:30:11;;;;;;;;;;;;;;;9.48;83.13;99735.03;1088281;54;997;-81
2023/11/19 02:31:14;;;;;;;;;;;;;;;9.47;82.75;99727.19;1088123;54;1249;-81
2023/11/19 02:32:15;;;;;;;;;;;;;;;9.48;82.85;99728.88;1088301;54;987;-80
2023/11/19 02:33:16;;;;;;;;;;;;;;;9.37;83.53;99721.88;1088285;54;964;-81
2023/11/19 02:34:20;;;;;;;;;;;;;;;9.47;82.81;99729.84;1088144;47;968;-81
2023/11/19 02:35:22;;;;;;;;;;;;;;;9.24;84.02;99726.69;1088111;54;1007;-81
2023/11/19 02:36:26;;;;;;;;;;;;;;;9.30;83.96;99729.63;1088209;47;935;-81
2023/11/19 02:37:28;;;;;;;;;;;;;;;9.33;83.84;99731.16;1088235;54;993;-81
2023/11/19 02:38:31;;;;;;;;;;;;;;;9.40;83.46;99721.59;1088095;47;1867;-81
2023/11/19 02:39:32;;;;;;;;;;;;;;;9.33;83.83;99709.81;1088119;54;1239;-81
2023/11/19 02:40:36;;;;;;;;;;;;;;;9.31;83.97;99707.28;1088193;47;1043;-81
2023/11/19 02:41:36;;;;;;;;;;;;;;;9.34;83.63;99711.50;1087983;54;1335;-77
2023/11/19 02:42:37;;;;;;;;;;;;;;;9.39;83.71;99708.41;1087885;47;922;-77
2023/11/19 02:43:43;;;;;;;;;;;;;;;9.45;83.61;99705.13;1087921;54;1005;-77
2023/11/19 02:44:44;;;;;;;;;;;;;;;9.49;83.49;99709.22;1087912;54;1107;-77
2023/11/19 02:45:49;;;;;;;;;;;;;;;9.46;83.38;99702.31;1088110;47;950;-77
2023/11/19 02:46:50;;;;;;;;;;;;;;;9.47;83.38;99706.66;1088104;54;1166;-79
2023/11/19 02:47:54;;;;;;;;;;;;;;;9.37;84.02;99716.53;1088109;46;1037;-78
2023/11/19 02:48:55;;;;;;;;;;;;;;;9.36;83.97;99712.19;1088045;54;1135;-78
2023/11/19 02:49:56;;;;;;;;;;;;;;;9.29;84.46;99721.75;1087973;47;1071;-79
2023/11/19 02:51:00;;;;;;;;;;;;;;;9.39;84.04;99709.22;1088275;46;1019;-79
2023/11/19 02:52:01;;;;;;;;;;;;;;;9.44;84.23;99709.66;1088264;54;982;-79
2023/11/19 02:53:06;;;;;;;;;;;;;;;9.44;84.19;99714.97;1088113;47;1043;-79
2023/11/19 02:54:07;;;;;;;;;;;;;;;9.46;83.87;99718.31;1088266;54;1101;-78
2023/11/19 02:55:12;;;;;;;;;;;;;;;9.52;84.08;99716.91;1088302;54;1042;-79
2023/11/19 02:56:15;;;;;;;;;;;;;;;9.48;84.19;99713.69;1088338;46;1014;-79
2023/11/19 02:57:20;;;;;;;;;;;;;;;9.48;84.13;99729.69;1088181;47;954;-78
2023/11/19 02:58:23;;;;;;;;;;;;;;;9.57;84.28;99713.78;1088279;54;1010;-79
2023/11/19 02:59:38;;;;;;;;;;;;;;;9.63;84.22;99710.56;1087753;47;1857;-78
2023/11/19 03:00:47;;;;;;;;;;;;;;;9.68;83.71;99710.94;1087905;46;1031;-80
2023/11/19 03:01:52;;;;;;;;;;;;;;;9.72;83.75;99709.69;1087849;54;1276;-79
2023/11/19 03:02:58;;;;;;;;;;;;;;;9.70;83.47;99698.31;1087920;47;999;-78
2023/11/19 03:04:02;;;;;;;;;;;;;;;9.65;83.56;99697.88;1088091;46;1091;-79
2023/11/19 03:05:04;;;;;;;;;;;;;;;9.65;83.53;99688.06;1088352;54;963;-78
2023/11/19 03:06:06;;;;;;;;;;;;;;;9.67;83.51;99675.41;1088281;46;942;-80
2023/11/19 03:07:09;;;;;;;;;;;;;;;9.64;83.61;99675.72;1088342;54;976;-80
2023/11/19 03:08:10;;;;;;;;;;;;;;;9.61;83.86;99673.31;1088224;54;1002;-79
2023/11/19 03:09:13;;;;;;;;;;;;;;;9.52;84.07;99677.72;1088204;54;927;-80
2023/11/19 03:10:14;;;;;;;;;;;;;;;9.58;84.32;99667.44;1088191;47;819;-80
2023/11/19 03:11:17;;;;;;;;;;;;;;;9.63;84.09;99665.19;1088121;54;1425;-80
2023/11/19 03:12:18;;;;;;;;;;;;;;;9.60;83.91;99652.97;1088125;47;908;-78
2023/11/19 03:13:18;;;;;;;;;;;;;;;9.62;84.00;99651.00;1088109;47;977;-79
2023/11/19 03:14:22;;;;;;;;;;;;;;;9.61;84.17;99653.81;1088144;54;976;-78
2023/11/19 03:15:26;;;;;;;;;;;;;;;9.70;83.98;99658.25;1088131;54;885;-78
2023/11/19 03:16:30;;;;;;;;;;;;;;;9.72;84.15;99650.94;1088067;47;1082;-79
2023/11/19 03:17:31;;;;;;;;;;;;;;;9.73;84.09;99655.28;1088216;54;931;-79
2023/11/19 03:18:32;;;;;;;;;;;;;;;9.73;83.98;99652.59;1088237;54;1071;-80
2023/11/19 03:19:36;;;;;;;;;;;;;;;9.72;84.16;99656.28;1088038;54;1866;-78
2023/11/19 03:20:36;;;;;;;;;;;;;;;9.70;84.62;99652.91;1087542;46;938;-79
2023/11/19 03:21:37;;;;;;;;;;;;;;;9.70;84.74;99660.06;1087164;54;1324;-78
2023/11/19 03:22:41;;;;;;;;;;;;;;;9.70;84.94;99657.41;1087644;47;1036;-78
2023/11/19 03:23:43;;;;;;;;;;;;;;;9.73;84.75;99660.63;1087951;54;1039;-79
2023/11/19 03:24:43;;;;;;;;;;;;;;;9.75;84.97;99665.81;1087691;47;971;-79
2023/11/19 03:25:47;;;;;;;;;;;;;;;9.74;84.72;99664.13;1087646;54;1098;-79
2023/11/19 03:26:50;;;;;;;;;;;;;;;9.78;84.63;99674.38;1088013;47;1058;-79
2023/11/19 03:27:50;;;;;;;;;;;;;;;9.77;84.70;99670.00;1087979;54;1035;-79
2023/11/19 03:28:54;;;;;;;;;;;;;;;9.71;84.70;99670.63;1088031;47;863;-79
2023/11/19 03:29:54;;;;;;;;;;;;;;;9.60;85.41;99657.47;1088054;47;1055;-79
2023/11/19 03:31:00;;;;;;;;;;;;;;;9.51;85.99;99652.03;1088160;54;1087;-79
2023/11/19 03:32:01;;;;;;;;;;;;;;;9.60;85.40;99652.13;1088223;54;1000;-78
2023/11/19 03:33:05;;;;;;;;;;;;;;;9.64;84.81;99650.81;1088155;54;905;-78
2023/11/19 03:34:05;;;;;;;;;;;;;;;9.59;85.20;99648.59;1087919;47;950;-78
2023/11/19 03:35:11;;;;;;;;;;;;;;;9.66;85.58;99641.72;1088122;47;973;-78
2023/11/19 03:36:13;;;;;;;;;;;;;;;9.75;85.06;99639.97;1088196;54;981;-78
2023/11/19 03:37:17;;;;;;;;;;;;;;;9.82;84.71;99641.03;1088185;54;958;-78
2023/11/19 03:38:18;;;;;;;;;;;;;;;9.82;84.88;99637.53;1088152;54;935;-79
2023/11/19 03:39:24;;;;;;;;;;;;;;;9.82;84.81;99638.34;1088144;54;1858;-78
2023/11/19 03:40:25;;;;;;;;;;;;;;;9.81;84.90;99635.84;1088190;54;907;-78
2023/11/19 03:41:28;;;;;;;;;;;;;;;9.78;84.73;99637.00;1088150;54;1315;-78
2023/11/19 03:42:30;;;;;;;;;;;;;;;9.84;84.51;99628.38;1088259;54;986;-78
2023/11/19 03:43:34;;;;;;;;;;;;;;;9.87;84.36;99631.75;1088123;54;1157;-78
2023/11/19 03:44:35;;;;;;;;;;;;;;;9.87;84.40;99631.75;1088246;46;1221;-78
2023/11/19 03:45:39;;;;;;;;;;;;;;;9.90;84.60;99634.13;1088062;47;997;-78
2023/11/19 03:46:42;;;;;;;;;;;;;;;9.94;84.49;99622.13;1088058;47;1055;-79
2023/11/19 03:47:45;;;;;;;;;;;;;;;9.88;84.67;99628.91;1088087;54;1129;-79
2023/11/19 03:48:46;;;;;;;;;;;;;;;9.88;84.46;99633.44;1088181;46;897;-78
2023/11/19 03:49:48;;;;;;;;;;;;;;;9.90;84.70;99620.78;1088175;47;990;-78
2023/11/19 03:50:51;;;;;;;;;;;;;;;9.94;84.52;99627.47;1088168;54;1150;-78
2023/11/19 03:51:52;;;;;;;;;;;;;;;9.98;84.73;99612.84;1088174;54;1327;-78
2023/11/19 03:52:53;;;;;;;;;;;;;;;10.04;84.71;99612.22;1087801;54;1118;-79
2023/11/19 03:53:56;;;;;;;;;;;;;;;10.08;84.31;99608.28;1087835;47;983;-78
2023/11/19 03:54:57;;;;;;;;;;;;;;;10.14;84.54;99618.34;1087871;54;1102;-78
2023/11/19 03:56:01;;;;;;;;;;;;;;;10.14;84.45;99623.69;1087567;47;1439;-78
2023/11/19 03:57:03;;;;;;;;;;;;;;;10.15;84.75;99630.69;1087480;46;1062;-79
2023/11/19 03:58:06;;;;;;;;;;;;;;;10.11;84.84;99626.66;1087784;54;1035;-78
2023/11/19 03:59:07;;;;;;;;;;;;;;;10.11;85.19;99628.50;1087885;54;1892;-78
2023/11/19 04:00:13;;;;;;;;;;;;;;;10.18;84.94;99618.88;1087609;47;928;-79
2023/11/19 04:01:17;;;;;;;;;;;;;;;10.18;85.08;99624.22;1087710;54;1295;-78
2023/11/19 04:02:20;;;;;;;;;;;;;;;10.18;85.06;99626.06;1087848;54;1121;-79
2023/11/19 04:03:23;;;;;;;;;;;;;;;10.15;85.33;99621.88;1087722;46;1190;-78
2023/11/19 04:04:24;;;;;;;;;;;;;;;10.08;85.30;99618.97;1087822;54;1105;-78
2023/11/19 04:05:28;;;;;;;;;;;;;;;10.06;85.16;99617.44;1087748;54;1105;-78
2023/11/19 04:06:29;;;;;;;;;;;;;;;10.06;85.36;99620.94;1088235;54;1106;-79
2023/11/19 04:07:29;;;;;;;;;;;;;;;10.01;85.40;99620.56;1088044;54;979;-78
2023/11/19 04:08:33;;;;;;;;;;;;;;;10.05;85.46;99615.75;1088031;47;921;-78
2023/11/19 04:09:33;;;;;;;;;;;;;;;10.01;85.84;99612.56;1087969;54;1036;-79
2023/11/19 04:10:37;;;;;;;;;;;;;;;10.03;85.65;99615.88;1087983;47;1118;-79
2023/11/19 04:11:38;;;;;;;;;;;;;;;10.04;85.47;99616.75;1087908;54;1438;-78
2023/11/19 04:12:41;;;;;;;;;;;;;;;10.07;85.50;99617.28;1088008;47;1055;-79
2023/11/19 04:13:42;;;;;;;;;;;;;;;10.03;85.90;99615.88;1088102;46;1055;-78
2023/11/19 04:14:46;;;;;;;;;;;;;;;9.98;86.00;99618.19;1088115;54;1392;-78
2023/11/19 04:15:48;;;;;;;;;;;;;;;10.01;85.53;99622.38;1088238;54;1086;-77
2023/11/19 04:16:52;;;;;;;;;;;;;;;9.92;86.06;99608.13;1088243;47;1019;-78
2023/11/19 04:17:57;;;;;;;;;;;;;;;9.97;86.18;99617.31;1087957;47;1116;-78
2023/11/19 04:19:01;;;;;;;;;;;;;;;10.00;85.84;99616.22;1088157;47;913;-78
2023/11/19 04:20:03;;;;;;;;;;;;;;;10.01;85.88;99611.69;1088145;54;1853;-77
2023/11/19 04:21:09;;;;;;;;;;;;;;;10.03;85.80;99615.88;1088195;54;1379;-79
2023/11/19 04:22:10;;;;;;;;;;;;;;;10.04;85.91;99617.56;1087834;54;1062;-78
2023/11/19 04:23:14;;;;;;;;;;;;;;;10.04;85.88;99617.56;1088255;46;924;-79
2023/11/19 04:24:15;;;;;;;;;;;;;;;9.95;86.29;99623.81;1088089;47;962;-78
2023/11/19 04:25:19;;;;;;;;;;;;;;;9.86;86.96;99622.91;1088155;54;1016;-79
2023/11/19 04:26:19;;;;;;;;;;;;;;;9.95;86.83;99621.16;1088061;54;1110;-78
2023/11/19 04:27:23;;;;;;;;;;;;;;;9.97;86.59;99625.34;1088160;54;904;-79
2023/11/19 04:28:26;;;;;;;;;;;;;;;9.98;86.39;99626.19;1087982;47;1052;-79
2023/11/19 04:29:30;;;;;;;;;;;;;;;9.99;86.80;99618.03;1088117;54;927;-78
2023/11/19 04:30:31;;;;;;;;;;;;;;;10.00;86.95;99610.88;1088042;54;954;-79
2023/11/19 04:31:32;;;;;;;;;;;;;;;10.04;86.57;99606.88;1087905;47;1327;-79
2023/11/19 04:32:35;;;;;;;;;;;;;;;10.08;86.64;99602.94;1087880;47;857;-77
2023/11/19 04:33:39;;;;;;;;;;;;;;;10.10;86.56;99608.13;1088041;54;1143;-77
2023/11/19 04:34:42;;;;;;;;;;;;;;;10.18;86.27;99602.00;1087843;54;982;-77
2023/11/19 04:35:43;;;;;;;;;;;;;;;10.23;86.41;99599.72;1087470;47;1129;-77
2023/11/19 04:36:46;;;;;;;;;;;;;;;10.27;86.07;99595.75;1087547;54;1017;-78
2023/11/19 04:37:49;;;;;;;;;;;;;;;10.33;85.90;99605.00;1087568;47;1044;-77
2023/11/19 04:38:50;;;;;;;;;;;;;;;10.37;85.74;99587.63;1087336;47;1063;-78
2023/11/19 04:39:53;;;;;;;;;;;;;;;10.34;85.81;99599.47;1087088;47;1949;-77
2023/11/19 04:40:57;;;;;;;;;;;;;;;10.37;85.61;99601.00;1087079;47;1073;-77
2023/11/19 04:42:00;;;;;;;;;;;;;;;10.32;85.87;99601.47;1087176;47;1405;-77
2023/11/19 04:43:00;;;;;;;;;;;;;;;10.36;85.70;99600.16;1087074;54;1189;-77
2023/11/19 04:44:01;;;;;;;;;;;;;;;10.40;85.73;99606.06;1087213;54;1206;-77
2023/11/19 04:45:06;;;;;;;;;;;;;;;10.43;85.62;99601.25;1086983;47;1073;-77
2023/11/19 04:46:07;;;;;;;;;;;;;;;10.49;85.65;99604.28;1087589;54;1099;-76
2023/11/19 04:47:10;;;;;;;;;;;;;;;10.54;85.32;99605.50;1087178;47;1004;-77
2023/11/19 04:48:12;;;;;;;;;;;;;;;10.55;85.27;99607.19;1086951;54;1091;-77
2023/11/19 04:49:18;;;;;;;;;;;;;;;10.57;85.49;99612.41;1087046;54;1065;-80
2023/11/19 04:50:19;;;;;;;;;;;;;;;10.59;85.45;99610.38;1087152;47;1100;-77
2023/11/19 04:51:22;;;;;;;;;;;;;;;10.62;85.18;99604.75;1087764;54;1388;-77
2023/11/19 04:52:22;;;;;;;;;;;;;;;10.66;85.23;99605.25;1087789;54;1048;-77
2023/11/19 04:53:26;;;;;;;;;;;;;;;10.68;85.33;99603.28;1087468;47;1083;-78
2023/11/19 04:54:26;;;;;;;;;;;;;;;10.64;85.49;99605.44;1087499;47;1032;-77
2023/11/19 04:55:30;;;;;;;;;;;;;;;10.64;85.77;99607.25;1087092;47;1056;-76
2023/11/19 04:56:31;;;;;;;;;;;;;;;10.68;85.82;99603.28;1087192;54;1040;-78
2023/11/19 04:57:34;;;;;;;;;;;;;;;10.73;85.75;99603.63;1087687;47;984;-76
2023/11/19 04:58:36;;;;;;;;;;;;;;;10.81;85.50;99605.53;1087201;54;904;-76
2023/11/19 04:59:37;;;;;;;;;;;;;;;10.84;85.33;99602.56;1087331;54;1857;-77
2023/11/19 05:00:40;;;;;;;;;;;;;;;10.89;85.18;99606.44;1087933;54;1375;-78
2023/11/19 05:01:41;;;;;;;;;;;;;;;10.93;85.27;99604.28;1087855;47;1426;-77
2023/11/19 05:02:45;;;;;;;;;;;;;;;10.93;85.56;99601.59;1087195;54;1180;-77
2023/11/19 05:03:45;;;;;;;;;;;;;;;10.97;85.43;99602.94;1086945;54;997;-77
2023/11/19 05:04:51;;;;;;;;;;;;;;;10.98;85.93;99598.47;1087436;54;1095;-77
2023/11/19 05:05:52;;;;;;;;;;;;;;;10.98;86.01;99603.81;1087290;47;1039;-77
2023/11/19 05:06:55;;;;;;;;;;;;;;;10.98;86.80;99598.47;1087090;47;954;-77
2023/11/19 05:07:56;;;;;;;;;;;;;;;10.99;86.76;99605.50;1086288;46;1108;-77
2023/11/19 05:09:00;;;;;;;;;;;;;;;11.04;87.10;99606.69;1086376;47;1032;-78
2023/11/19 05:10:01;;;;;;;;;;;;;;;11.11;86.97;99609.53;1086520;47;1141;-77
2023/11/19 05:11:05;;;;;;;;;;;;;;;11.15;86.80;99610.06;1086453;54;1416;-77
2023/11/19 05:12:09;;;;;;;;;;;;;;;11.18;86.92;99607.06;1086883;54;1080;-77
2023/11/19 05:13:13;;;;;;;;;;;;;;;11.17;87.50;99613.44;1087065;54;1468;-79
2023/11/19 05:14:13;;;;;;;;;;;;;;;11.21;87.18;99614.81;1087307;54;1067;-77
2023/11/19 05:15:16;;;;;;;;;;;;;;;11.24;87.54;99603.78;1086990;47;1071;-77
2023/11/19 05:16:18;;;;;;;;;;;;;;;11.27;87.62;99607.97;1086800;54;1190;-78
2023/11/19 05:17:18;;;;;;;;;;;;;;;11.26;87.88;99603.63;1087227;54;1060;-77
2023/11/19 05:18:22;;;;;;;;;;;;;;;11.27;87.87;99611.47;1087119;47;1147;-77
2023/11/19 05:19:22;;;;;;;;;;;;;;;11.33;87.60;99604.66;1087623;54;1039;-77
2023/11/19 05:20:28;;;;;;;;;;;;;;;11.36;87.74;99607.84;1088043;54;1864;-77
2023/11/19 05:21:30;;;;;;;;;;;;;;;11.39;87.52;99604.00;1087359;47;1384;-78
2023/11/19 05:22:33;;;;;;;;;;;;;;;11.42;87.47;99605.53;1087209;54;1173;-77
2023/11/19 05:23:34;;;;;;;;;;;;;;;11.37;87.99;99614.03;1087671;54;1157;-78
2023/11/19 05:24:39;;;;;;;;;;;;;;;11.39;87.98;99606.66;1087799;54;1095;-76
2023/11/19 05:25:40;;;;;;;;;;;;;;;11.36;88.23;99607.84;1087224;47;1075;-77
2023/11/19 05:26:41;;;;;;;;;;;;;;;11.31;89.04;99609.31;1087354;54;1417;-78
2023/11/19 05:27:44;;;;;;;;;;;;;;;11.35;88.90;99611.50;1087635;54;1197;-76
2023/11/19 05:28:44;;;;;;;;;;;;;;;11.42;88.58;99602.84;1087621;54;1090;-78
2023/11/19 05:29:48;;;;;;;;;;;;;;;11.48;88.15;99608.38;1087833;47;987;-77
2023/11/19 05:30:48;;;;;;;;;;;;;;;11.49;88.26;99610.06;1087694;47;971;-77
2023/11/19 05:31:52;;;;;;;;;;;;;;;11.54;88.08;99605.06;1087471;46;1340;-78
2023/11/19 05:32:52;;;;;;;;;;;;;;;11.58;88.11;99594.88;1088006;46;1027;-77
2023/11/19 05:33:56;;;;;;;;;;;;;;;11.60;87.99;99595.56;1087905;54;946;-77
2023/11/19 05:34:56;;;;;;;;;;;;;;;11.64;87.74;99593.38;1087827;47;973;-77
2023/11/19 05:36:03;;;;;;;;;;;;;;;11.62;87.75;99601.56;1087300;47;1465;-77
2023/11/19 05:37:05;;;;;;;;;;;;;;;11.66;87.63;99602.94;1087635;47;1016;-77
2023/11/19 05:38:09;;;;;;;;;;;;;;;11.67;87.76;99604.63;1087538;47;1031;-77
2023/11/19 05:39:11;;;;;;;;;;;;;;;11.69;87.87;99605.28;1087422;46;1140;-77
2023/11/19 05:40:17;;;;;;;;;;;;;;;11.65;88.12;99606.59;1087447;54;1929;-78
2023/11/19 05:41:17;;;;;;;;;;;;;;;11.60;88.55;99606.28;1086451;46;1411;-78
2023/11/19 05:42:21;;;;;;;;;;;;;;;11.63;88.47;99603.25;1086939;47;1182;-77
2023/11/19 05:43:21;;;;;;;;;;;;;;;11.65;88.84;99590.53;1087253;54;1075;-78
2023/11/19 05:44:25;;;;;;;;;;;;;;;11.68;88.91;99595.59;1086761;47;1086;-78
2023/11/19 05:45:26;;;;;;;;;;;;;;;11.63;89.98;99597.88;1086933;54;1077;-78
2023/11/19 05:46:30;;;;;;;;;;;;;;;11.67;90.43;99593.91;1087831;47;1030;-78
2023/11/19 05:47:30;;;;;;;;;;;;;;;11.81;90.24;99586.22;1087921;54;974;-78
2023/11/19 05:48:34;;;;;;;;;;;;;;;11.89;90.22;99594.28;1087889;54;904;-79
2023/11/19 05:49:35;;;;;;;;;;;;;;;11.96;90.21;99597.97;1087888;47;952;-78
2023/11/19 05:50:38;;;;;;;;;;;;;;;12.00;90.02;99588.63;1087913;54;1054;-78
2023/11/19 05:51:41;;;;;;;;;;;;;;;12.12;89.77;99602.56;1087840;47;1318;-78
2023/11/19 05:52:44;;;;;;;;;;;;;;;12.22;89.08;99602.41;1087812;54;1004;-78
2023/11/19 05:53:45;;;;;;;;;;;;;;;12.23;89.13;99604.06;1087803;54;939;-77
2023/11/19 05:54:51;;;;;;;;;;;;;;;12.24;89.33;99604.91;1087757;47;951;-77